createdAt,value
2023-01-20T00:00:11.569Z,5.48
2023-01-20T00:01:09.842Z,5.51
2023-01-20T00:02:06.428Z,5.35
2023-01-20T00:03:03.215Z,5.44
2023-01-20T00:04:00.392Z,5.36
2023-01-20T00:04:57.137Z,5.35
2023-01-20T00:05:53.903Z,5.28
2023-01-20T00:06:50.521Z,5.08
2023-01-20T00:07:47.155Z,5.32
2023-01-20T00:08:43.789Z,5.60
2023-01-20T00:09:40.376Z,5.67
2023-01-20T00:10:37.346Z,5.57
2023-01-20T00:11:34.104Z,5.49
2023-01-20T00:12:32.047Z,5.56
2023-01-20T00:13:28.828Z,5.62
2023-01-20T00:14:25.718Z,5.56
2023-01-20T00:15:22.367Z,5.63
2023-01-20T00:16:19.072Z,5.63
2023-01-20T00:17:15.775Z,5.73
2023-01-20T00:18:12.429Z,5.58
2023-01-20T00:19:12.082Z,5.53
2023-01-20T00:20:09.517Z,5.57
2023-01-20T00:21:11.824Z,5.55
2023-01-20T00:22:08.395Z,5.60
2023-01-20T00:23:04.979Z,5.65
2023-01-20T00:24:01.573Z,5.78
2023-01-20T00:24:58.156Z,5.83
2023-01-20T00:25:54.769Z,5.78
2023-01-20T00:26:51.316Z,5.68
2023-01-20T00:27:47.922Z,6.14
2023-01-20T00:28:45.379Z,6.27
2023-01-20T00:29:44.246Z,6.01
2023-01-20T00:30:41.964Z,5.86
2023-01-20T00:31:38.797Z,6.04
2023-01-20T00:32:39.627Z,6.02
2023-01-20T00:33:36.258Z,6.09
2023-01-20T00:34:32.859Z,5.95
2023-01-20T00:35:29.532Z,5.98
2023-01-20T00:36:27.777Z,5.82
2023-01-20T00:37:24.386Z,5.86
2023-01-20T00:38:21.714Z,5.87
2023-01-20T00:39:18.308Z,5.99
2023-01-20T00:40:14.965Z,5.92
2023-01-20T00:41:12.431Z,5.95
2023-01-20T00:42:09.015Z,6.13
2023-01-20T00:43:05.584Z,6.10
2023-01-20T00:44:02.227Z,5.97
2023-01-20T00:44:58.876Z,5.89
2023-01-20T00:45:55.496Z,6.02
2023-01-20T00:46:52.229Z,5.80
2023-01-20T00:47:48.851Z,6.02
2023-01-20T00:48:45.532Z,6.02
2023-01-20T00:49:42.133Z,6.06
2023-01-20T00:50:38.689Z,6.04
2023-01-20T00:51:35.311Z,6.11
2023-01-20T00:52:32.019Z,6.18
2023-01-20T00:53:29.022Z,5.93
2023-01-20T00:54:25.596Z,6.12
2023-01-20T00:55:22.133Z,6.27
2023-01-20T00:56:18.744Z,6.18
2023-01-20T00:57:15.365Z,5.99
2023-01-20T00:58:11.946Z,6.24
2023-01-20T00:59:10.293Z,6.38
2023-01-20T01:00:07.513Z,6.29
2023-01-20T01:01:04.586Z,6.13
2023-01-20T01:02:01.320Z,6.41
2023-01-20T01:02:57.953Z,6.30
2023-01-20T01:03:54.775Z,6.27
2023-01-20T01:04:51.505Z,5.99
2023-01-20T01:05:48.161Z,6.29
2023-01-20T01:06:44.768Z,5.94
2023-01-20T01:07:41.417Z,6.25
2023-01-20T01:08:38.364Z,6.21
2023-01-20T01:09:35.026Z,6.39
2023-01-20T01:10:32.207Z,6.41
2023-01-20T01:11:28.822Z,6.51
2023-01-20T01:12:25.380Z,6.21
2023-01-20T01:13:21.980Z,6.28
2023-01-20T01:14:18.683Z,6.09
2023-01-20T01:15:15.587Z,6.39
2023-01-20T01:16:14.110Z,6.13
2023-01-20T01:17:10.788Z,6.28
2023-01-20T01:18:07.396Z,6.29
2023-01-20T01:19:04.036Z,6.17
2023-01-20T01:20:00.686Z,6.28
2023-01-20T01:20:57.621Z,6.42
2023-01-20T01:21:54.157Z,6.38
2023-01-20T01:22:50.847Z,6.39
2023-01-20T01:23:47.667Z,6.34
2023-01-20T01:24:44.803Z,6.48
2023-01-20T01:25:41.393Z,6.53
2023-01-20T01:26:38.105Z,6.33
2023-01-20T01:27:35.165Z,6.34
2023-01-20T01:28:31.838Z,6.52
2023-01-20T01:29:28.459Z,6.53
2023-01-20T01:30:25.196Z,6.43
2023-01-20T01:31:23.191Z,6.37
2023-01-20T01:32:20.621Z,6.47
2023-01-20T01:33:17.238Z,6.57
2023-01-20T01:34:13.914Z,6.43
2023-01-20T01:35:10.494Z,6.39
2023-01-20T01:36:09.556Z,6.48
2023-01-20T01:37:06.146Z,6.52
2023-01-20T01:38:02.773Z,6.63
2023-01-20T01:38:59.423Z,6.68
2023-01-20T01:39:56.034Z,6.71
2023-01-20T01:40:54.451Z,6.69
2023-01-20T01:41:51.531Z,6.59
2023-01-20T01:42:48.122Z,6.55
2023-01-20T01:44:20.914Z,6.53
2023-01-20T01:45:21.716Z,6.49
2023-01-20T01:46:18.378Z,6.61
2023-01-20T01:47:15.036Z,6.68
2023-01-20T01:48:11.643Z,6.60
2023-01-20T01:49:20.906Z,6.66
2023-01-20T01:50:25.625Z,6.43
2023-01-20T01:51:27.216Z,6.67
2023-01-20T01:52:25.109Z,6.62
2023-01-20T01:53:22.695Z,6.51
2023-01-20T01:54:23.353Z,6.73
2023-01-20T01:55:22.575Z,6.70
2023-01-20T01:56:21.487Z,6.69
2023-01-20T01:57:18.123Z,6.82
2023-01-20T01:58:18.063Z,6.84
2023-01-20T01:59:16.352Z,7.00
2023-01-20T02:00:13.548Z,6.62
2023-01-20T02:01:10.997Z,6.96
2023-01-20T02:02:07.893Z,6.87
2023-01-20T02:03:04.934Z,6.77
2023-01-20T02:04:09.953Z,6.88
2023-01-20T02:05:07.709Z,6.88
2023-01-20T02:06:04.593Z,6.98
2023-01-20T02:07:06.306Z,6.72
2023-01-20T02:08:03.705Z,6.81
2023-01-20T02:09:04.789Z,6.92
2023-01-20T02:10:01.730Z,7.03
2023-01-20T02:10:58.385Z,7.04
2023-01-20T02:12:00.010Z,6.88
2023-01-20T02:12:56.698Z,6.96
2023-01-20T02:13:53.367Z,6.85
2023-01-20T02:14:53.651Z,6.78
2023-01-20T02:16:09.387Z,6.91
2023-01-20T02:17:18.179Z,6.91
2023-01-20T02:18:43.730Z,6.74
2023-01-20T02:19:46.160Z,6.59
2023-01-20T02:20:45.509Z,6.82
2023-01-20T02:22:19.185Z,6.98
2023-01-20T02:23:43.199Z,7.00
2023-01-20T02:24:58.266Z,6.83
2023-01-20T02:26:27.529Z,6.97
2023-01-20T02:27:42.461Z,6.92
2023-01-20T02:29:09.063Z,6.95
2023-01-20T02:30:22.234Z,6.96
2023-01-20T02:31:32.107Z,6.89
2023-01-20T02:32:38.519Z,6.94
2023-01-20T02:34:09.945Z,6.99
2023-01-20T02:35:33.903Z,6.95
2023-01-20T02:36:48.295Z,6.86
2023-01-20T02:38:24.558Z,6.66
2023-01-20T02:39:27.237Z,6.86
2023-01-20T02:40:56.611Z,6.65
2023-01-20T02:42:08.041Z,6.83
2023-01-20T02:43:27.449Z,6.77
2023-01-20T02:44:53.727Z,6.87
2023-01-20T02:46:04.087Z,6.82
2023-01-20T02:47:26.823Z,7.00
2023-01-20T02:48:36.814Z,7.00
2023-01-20T02:49:50.674Z,7.00
2023-01-20T02:51:07.717Z,6.85
2023-01-20T02:52:19.674Z,6.94
2023-01-20T02:53:17.776Z,6.80
2023-01-20T02:54:17.343Z,6.91
2023-01-20T02:55:22.751Z,6.91
2023-01-20T02:56:22.441Z,6.94
2023-01-20T02:57:24.787Z,6.89
2023-01-20T02:58:25.432Z,6.80
2023-01-20T02:59:28.940Z,6.75
2023-01-20T03:00:33.113Z,6.74
2023-01-20T03:01:34.516Z,6.87
2023-01-20T03:02:34.881Z,6.93
2023-01-20T03:03:36.899Z,6.86
2023-01-20T03:05:03.456Z,6.89
2023-01-20T03:06:02.719Z,7.02
2023-01-20T03:07:01.029Z,7.05
2023-01-20T03:08:01.334Z,6.98
2023-01-20T03:09:00.689Z,6.87
2023-01-20T03:10:01.378Z,6.97
2023-01-20T03:11:03.928Z,6.94
2023-01-20T03:12:07.688Z,6.80
2023-01-20T03:13:16.984Z,6.84
2023-01-20T03:14:15.652Z,7.01
2023-01-20T03:15:13.461Z,6.95
2023-01-20T03:16:15.627Z,7.02
2023-01-20T03:17:12.401Z,7.06
2023-01-20T03:18:09.039Z,6.46
2023-01-20T03:19:05.799Z,6.59
2023-01-20T03:20:02.738Z,6.60
2023-01-20T03:21:01.083Z,6.94
2023-01-20T03:21:57.812Z,6.86
2023-01-20T03:22:54.493Z,6.85
2023-01-20T03:23:53.727Z,6.71
2023-01-20T03:24:50.721Z,7.01
2023-01-20T03:25:49.985Z,7.04
2023-01-20T03:26:46.601Z,6.92
2023-01-20T03:27:43.235Z,7.10
2023-01-20T03:28:42.385Z,7.13
2023-01-20T03:29:39.279Z,7.10
2023-01-20T03:30:35.954Z,6.79
2023-01-20T03:31:46.146Z,6.54
2023-01-20T03:32:46.384Z,6.91
2023-01-20T03:33:44.780Z,7.16
2023-01-20T03:34:43.650Z,7.12
2023-01-20T03:35:41.217Z,7.09
2023-01-20T03:36:39.131Z,6.77
2023-01-20T03:37:35.855Z,7.01
2023-01-20T03:38:32.486Z,7.01
2023-01-20T03:39:29.553Z,6.98
2023-01-20T03:40:29.906Z,6.81
2023-01-20T03:41:34.867Z,7.10
2023-01-20T03:42:38.981Z,7.03
2023-01-20T03:43:44.869Z,6.72
2023-01-20T03:45:11.506Z,6.89
2023-01-20T03:46:29.310Z,6.89
2023-01-20T03:47:46.915Z,7.13
2023-01-20T03:49:03.866Z,6.91
2023-01-20T03:50:23.273Z,6.83
2023-01-20T03:51:33.888Z,7.11
2023-01-20T03:52:47.509Z,7.03
2023-01-20T03:53:52.823Z,7.05
2023-01-20T03:54:55.245Z,6.95
2023-01-20T03:56:00.965Z,6.82
2023-01-20T03:57:13.731Z,6.69
2023-01-20T03:58:18.299Z,6.92
2023-01-20T03:59:19.263Z,6.58
2023-01-20T04:00:17.864Z,6.82
2023-01-20T04:01:18.061Z,6.98
2023-01-20T04:02:15.713Z,7.01
2023-01-20T04:03:19.990Z,6.72
2023-01-20T04:04:21.773Z,6.83
2023-01-20T04:05:18.708Z,6.90
2023-01-20T04:06:18.216Z,6.99
2023-01-20T04:07:20.569Z,6.51
2023-01-20T04:08:20.560Z,6.58
2023-01-20T04:09:25.488Z,6.83
2023-01-20T04:10:24.807Z,6.87
2023-01-20T04:11:21.634Z,6.66
2023-01-20T04:12:18.687Z,6.65
2023-01-20T04:13:16.252Z,6.81
2023-01-20T04:14:12.914Z,6.86
2023-01-20T04:15:10.500Z,6.91
2023-01-20T04:16:12.782Z,6.56
2023-01-20T04:17:10.034Z,6.73
2023-01-20T04:18:12.589Z,6.81
2023-01-20T04:19:09.134Z,6.92
2023-01-20T04:20:13.504Z,6.85
2023-01-20T04:21:33.740Z,6.82
2023-01-20T04:22:36.355Z,6.63
2023-01-20T04:23:37.128Z,6.59
2023-01-20T04:24:45.865Z,6.64
2023-01-20T04:25:42.948Z,6.75
2023-01-20T04:26:39.687Z,6.63
2023-01-20T04:27:36.301Z,6.69
2023-01-20T04:28:32.950Z,6.77
2023-01-20T04:29:29.531Z,6.72
2023-01-20T04:30:26.194Z,6.52
2023-01-20T04:31:30.546Z,6.62
2023-01-20T04:32:27.339Z,6.57
2023-01-20T04:33:23.990Z,6.85
2023-01-20T04:34:21.012Z,6.76
2023-01-20T04:35:19.838Z,6.71
2023-01-20T04:36:16.450Z,6.77
2023-01-20T04:37:12.981Z,6.87
2023-01-20T04:38:09.760Z,6.64
2023-01-20T04:39:06.353Z,6.54
2023-01-20T04:40:03.008Z,6.59
2023-01-20T04:40:59.936Z,6.73
2023-01-20T04:41:57.291Z,6.69
2023-01-20T04:42:53.986Z,6.91
2023-01-20T04:43:50.580Z,6.94
2023-01-20T04:44:47.127Z,6.88
2023-01-20T04:45:43.726Z,6.65
2023-01-20T04:46:40.324Z,6.66
2023-01-20T04:47:36.935Z,6.86
2023-01-20T04:48:33.542Z,6.78
2023-01-20T04:49:30.156Z,6.57
2023-01-20T04:50:26.783Z,6.85
2023-01-20T04:51:23.382Z,6.60
2023-01-20T04:52:19.987Z,6.84
2023-01-20T04:53:19.174Z,6.70
2023-01-20T04:54:15.739Z,6.75
2023-01-20T04:55:13.349Z,6.63
2023-01-20T04:56:14.504Z,6.61
2023-01-20T04:57:11.074Z,6.76
2023-01-20T04:58:09.127Z,6.74
2023-01-20T04:59:05.842Z,6.63
2023-01-20T05:00:03.182Z,6.59
2023-01-20T05:01:02.387Z,6.58
2023-01-20T05:01:59.111Z,6.59
2023-01-20T05:02:59.058Z,6.83
2023-01-20T05:03:55.701Z,6.70
2023-01-20T05:04:52.297Z,6.66
2023-01-20T05:05:53.720Z,6.72
2023-01-20T05:06:50.329Z,6.68
2023-01-20T05:07:46.914Z,6.62
2023-01-20T05:08:43.498Z,6.54
2023-01-20T05:09:40.070Z,6.57
2023-01-20T05:10:36.707Z,6.99
2023-01-20T05:11:33.271Z,6.71
2023-01-20T05:12:29.964Z,6.76
2023-01-20T05:13:26.620Z,6.92
2023-01-20T05:14:23.215Z,7.25
2023-01-20T05:15:19.813Z,7.30
2023-01-20T05:16:23.244Z,7.05
2023-01-20T05:17:19.868Z,6.82
2023-01-20T05:18:16.460Z,7.03
2023-01-20T05:19:13.877Z,7.06
2023-01-20T05:20:11.106Z,6.82
2023-01-20T05:21:08.846Z,6.59
2023-01-20T05:22:05.502Z,6.48
2023-01-20T05:23:02.213Z,6.63
2023-01-20T05:23:59.027Z,6.27
2023-01-20T05:24:55.809Z,6.36
2023-01-20T05:25:53.690Z,6.34
2023-01-20T05:26:50.319Z,6.36
2023-01-20T05:27:47.026Z,6.27
2023-01-20T05:28:44.827Z,6.21
2023-01-20T05:29:41.416Z,6.07
2023-01-20T05:30:38.060Z,6.08
2023-01-20T05:31:34.910Z,6.00
2023-01-20T05:32:31.604Z,5.89
2023-01-20T05:33:28.214Z,6.04
2023-01-20T05:34:24.764Z,6.46
2023-01-20T05:35:21.748Z,6.39
2023-01-20T05:36:18.380Z,6.38
2023-01-20T05:37:17.657Z,6.31
2023-01-20T05:38:14.324Z,6.20
2023-01-20T05:39:10.968Z,6.23
2023-01-20T05:40:08.197Z,6.23
2023-01-20T05:41:07.640Z,6.04
2023-01-20T05:42:04.325Z,6.04
2023-01-20T05:43:04.056Z,5.96
2023-01-20T05:44:00.938Z,5.89
2023-01-20T05:44:57.502Z,5.86
2023-01-20T05:45:54.777Z,6.10
2023-01-20T05:46:51.489Z,5.65
2023-01-20T05:47:48.066Z,6.19
2023-01-20T05:48:44.650Z,5.86
2023-01-20T05:49:41.351Z,6.04
2023-01-20T05:50:37.939Z,5.93
2023-01-20T05:51:34.545Z,5.95
2023-01-20T05:52:31.465Z,5.98
2023-01-20T05:53:28.221Z,6.01
2023-01-20T05:54:26.255Z,5.91
2023-01-20T05:55:22.866Z,5.98
2023-01-20T05:56:21.507Z,5.96
2023-01-20T05:57:18.514Z,5.90
2023-01-20T05:58:15.256Z,6.10
2023-01-20T05:59:11.866Z,6.12
2023-01-20T06:00:09.124Z,6.10
2023-01-20T06:01:11.184Z,6.03
2023-01-20T06:02:07.803Z,6.12
2023-01-20T06:03:04.599Z,6.16
2023-01-20T06:04:01.266Z,6.20
2023-01-20T06:05:01.610Z,6.20
2023-01-20T06:06:02.951Z,6.06
2023-01-20T06:06:59.564Z,6.33
2023-01-20T06:07:56.980Z,6.51
2023-01-20T06:08:53.737Z,6.55
2023-01-20T06:09:50.343Z,6.43
2023-01-20T06:10:47.424Z,6.43
2023-01-20T06:11:44.874Z,6.72
2023-01-20T06:12:41.670Z,6.52
2023-01-20T06:13:39.710Z,6.49
2023-01-20T06:14:36.266Z,6.29
2023-01-20T06:15:32.849Z,6.35
2023-01-20T06:16:29.978Z,6.30
2023-01-20T06:17:26.606Z,6.45
2023-01-20T06:18:24.571Z,6.31
2023-01-20T06:19:22.601Z,6.01
2023-01-20T06:20:19.450Z,6.15
2023-01-20T06:21:16.305Z,6.27
2023-01-20T06:22:15.049Z,6.53
2023-01-20T06:23:11.836Z,6.52
2023-01-20T06:24:08.481Z,6.33
2023-01-20T06:25:05.317Z,6.39
2023-01-20T06:26:04.892Z,6.29
2023-01-20T06:27:01.444Z,6.36
2023-01-20T06:27:57.989Z,6.29
2023-01-20T06:28:58.822Z,6.57
2023-01-20T06:29:55.523Z,6.55
2023-01-20T06:30:52.135Z,6.34
2023-01-20T06:31:48.834Z,6.48
2023-01-20T06:32:48.553Z,6.61
2023-01-20T06:33:45.268Z,6.39
2023-01-20T06:34:41.860Z,6.42
2023-01-20T06:35:38.553Z,6.64
2023-01-20T06:36:35.127Z,6.48
2023-01-20T06:37:31.965Z,6.35
2023-01-20T06:38:32.407Z,6.72
2023-01-20T06:39:29.345Z,6.65
2023-01-20T06:40:26.018Z,6.39
2023-01-20T06:41:22.674Z,6.48
2023-01-20T06:42:19.414Z,6.25
2023-01-20T06:43:16.234Z,6.25
2023-01-20T06:44:13.006Z,6.13
2023-01-20T06:45:10.065Z,6.14
2023-01-20T06:46:08.267Z,6.26
2023-01-20T06:47:04.891Z,6.49
2023-01-20T06:48:01.471Z,6.56
2023-01-20T06:49:00.794Z,6.72
2023-01-20T06:49:57.475Z,6.60
2023-01-20T06:50:59.777Z,6.44
2023-01-20T06:51:56.393Z,6.32
2023-01-20T06:52:53.875Z,6.28
2023-01-20T06:53:50.490Z,6.36
2023-01-20T06:54:47.164Z,6.06
2023-01-20T06:55:43.709Z,6.38
2023-01-20T06:56:40.342Z,6.24
2023-01-20T06:57:37.009Z,6.10
2023-01-20T06:58:33.974Z,6.23
2023-01-20T06:59:30.556Z,5.91
2023-01-20T07:00:27.292Z,6.24
2023-01-20T07:01:26.537Z,6.16
2023-01-20T07:02:23.217Z,6.37
2023-01-20T07:03:19.871Z,6.38
2023-01-20T07:04:16.468Z,6.19
2023-01-20T07:05:13.204Z,5.94
2023-01-20T07:06:17.331Z,6.20
2023-01-20T07:07:14.236Z,6.21
2023-01-20T07:08:11.703Z,6.12
2023-01-20T07:09:11.648Z,6.03
2023-01-20T07:10:09.259Z,6.30
2023-01-20T07:11:05.958Z,6.45
2023-01-20T07:12:02.649Z,6.54
2023-01-20T07:12:59.256Z,6.59
2023-01-20T07:13:55.929Z,6.58
2023-01-20T07:14:52.590Z,6.44
2023-01-20T07:15:49.216Z,6.49
2023-01-20T07:16:46.253Z,6.45
2023-01-20T07:17:42.993Z,6.49
2023-01-20T07:18:39.888Z,6.37
2023-01-20T07:19:36.504Z,6.26
2023-01-20T07:20:33.073Z,6.58
2023-01-20T07:21:29.772Z,6.50
2023-01-20T07:22:26.367Z,6.55
2023-01-20T07:23:24.299Z,6.67
2023-01-20T07:24:21.227Z,6.56
2023-01-20T07:25:17.880Z,6.69
2023-01-20T07:26:17.229Z,6.58
2023-01-20T07:27:15.168Z,6.44
2023-01-20T07:28:11.741Z,6.37
2023-01-20T07:29:08.394Z,6.50
2023-01-20T07:30:05.481Z,6.55
2023-01-20T07:31:19.823Z,6.81
2023-01-20T07:32:16.558Z,6.56
2023-01-20T07:33:13.111Z,6.82
2023-01-20T07:34:09.761Z,6.65
2023-01-20T07:35:06.627Z,6.83
2023-01-20T07:36:03.785Z,6.67
2023-01-20T07:37:02.436Z,6.68
2023-01-20T07:37:58.993Z,6.63
2023-01-20T07:38:55.911Z,6.41
2023-01-20T07:39:52.535Z,6.64
2023-01-20T07:40:49.122Z,6.58
2023-01-20T07:41:49.088Z,6.64
2023-01-20T07:42:45.704Z,6.58
2023-01-20T07:43:45.306Z,6.72
2023-01-20T07:44:42.018Z,6.80
2023-01-20T07:45:38.614Z,6.95
2023-01-20T07:46:35.246Z,6.92
2023-01-20T07:47:32.049Z,6.86
2023-01-20T07:48:31.349Z,6.88
2023-01-20T07:49:29.166Z,7.00
2023-01-20T07:50:25.838Z,6.74
2023-01-20T07:51:22.455Z,6.67
2023-01-20T07:52:19.033Z,6.41
2023-01-20T07:53:15.564Z,6.63
2023-01-20T07:54:12.364Z,6.51
2023-01-20T07:55:09.079Z,6.68
2023-01-20T07:56:11.740Z,6.55
2023-01-20T07:57:09.308Z,6.50
2023-01-20T07:58:05.893Z,6.44
2023-01-20T07:59:02.768Z,6.57
2023-01-20T07:59:59.419Z,6.58
2023-01-20T08:00:56.394Z,6.57
2023-01-20T08:01:53.219Z,6.53
2023-01-20T08:02:50.201Z,6.40
2023-01-20T08:03:47.035Z,6.52
2023-01-20T08:04:43.748Z,6.64
2023-01-20T08:05:40.443Z,6.77
2023-01-20T08:06:37.016Z,6.60
2023-01-20T08:07:33.910Z,6.65
2023-01-20T08:08:32.684Z,6.49
2023-01-20T08:09:29.305Z,6.52
2023-01-20T08:10:25.985Z,6.27
2023-01-20T08:11:23.151Z,6.63
2023-01-20T08:12:19.861Z,6.64
2023-01-20T08:13:16.411Z,6.52
2023-01-20T08:14:13.070Z,6.18
2023-01-20T08:15:10.448Z,6.30
2023-01-20T08:16:09.435Z,6.29
2023-01-20T08:17:06.350Z,6.60
2023-01-20T08:18:03.081Z,6.73
2023-01-20T08:18:59.673Z,6.72
2023-01-20T08:19:56.250Z,6.64
2023-01-20T08:20:52.880Z,6.44
2023-01-20T08:21:49.479Z,6.44
2023-01-20T08:22:46.059Z,6.29
2023-01-20T08:23:42.710Z,6.75
2023-01-20T08:24:39.318Z,6.56
2023-01-20T08:25:35.980Z,6.46
2023-01-20T08:26:33.642Z,6.56
2023-01-20T08:27:30.176Z,6.49
2023-01-20T08:28:27.169Z,6.51
2023-01-20T08:29:23.975Z,6.65
2023-01-20T08:30:21.928Z,6.49
2023-01-20T08:31:21.075Z,6.68
2023-01-20T08:32:17.805Z,6.58
2023-01-20T08:33:14.431Z,6.63
2023-01-20T08:34:12.312Z,6.66
2023-01-20T08:35:09.098Z,6.70
2023-01-20T08:36:09.209Z,6.52
2023-01-20T08:37:05.844Z,6.45
2023-01-20T08:38:03.445Z,6.51
2023-01-20T08:39:02.674Z,6.60
2023-01-20T08:39:59.377Z,6.48
2023-01-20T08:40:55.947Z,6.49
2023-01-20T08:41:52.612Z,6.12
2023-01-20T08:42:49.176Z,6.49
2023-01-20T08:43:45.839Z,6.39
2023-01-20T08:44:42.416Z,5.81
2023-01-20T08:45:39.910Z,6.59
2023-01-20T08:46:41.888Z,6.59
2023-01-20T08:47:44.253Z,6.65
2023-01-20T08:48:42.454Z,6.46
2023-01-20T08:49:39.077Z,6.64
2023-01-20T08:50:36.603Z,6.65
2023-01-20T08:51:33.798Z,6.54
2023-01-20T08:52:30.469Z,6.50
2023-01-20T08:53:27.054Z,6.62
2023-01-20T08:54:24.092Z,6.34
2023-01-20T08:55:20.720Z,6.49
2023-01-20T08:56:18.523Z,6.37
2023-01-20T08:57:16.219Z,6.63
2023-01-20T08:58:12.828Z,6.56
2023-01-20T08:59:10.945Z,6.66
2023-01-20T09:00:10.974Z,6.68
2023-01-20T09:01:10.433Z,6.69
2023-01-20T09:02:07.067Z,6.51
2023-01-20T09:03:03.966Z,6.81
2023-01-20T09:04:06.196Z,6.92
2023-01-20T09:05:04.891Z,6.78
2023-01-20T09:06:03.037Z,6.48
2023-01-20T09:06:59.658Z,6.66
2023-01-20T09:07:56.257Z,6.71
2023-01-20T09:08:53.759Z,6.92
2023-01-20T09:09:50.353Z,7.02
2023-01-20T09:10:47.080Z,7.08
2023-01-20T09:11:51.294Z,7.00
2023-01-20T09:12:48.634Z,6.93
2023-01-20T09:13:45.573Z,7.12
2023-01-20T09:14:42.221Z,7.05
2023-01-20T09:15:39.001Z,6.83
2023-01-20T09:16:35.970Z,6.95
2023-01-20T09:17:32.714Z,7.04
2023-01-20T09:18:33.447Z,7.03
2023-01-20T09:19:30.158Z,6.91
2023-01-20T09:20:28.710Z,7.08
2023-01-20T09:21:25.351Z,6.76
2023-01-20T09:22:21.918Z,7.12
2023-01-20T09:23:18.602Z,7.15
2023-01-20T09:24:15.369Z,7.11
2023-01-20T09:25:11.963Z,7.18
2023-01-20T09:26:08.727Z,7.25
2023-01-20T09:27:05.369Z,7.20
2023-01-20T09:28:02.064Z,7.39
2023-01-20T09:28:58.677Z,7.43
2023-01-20T09:29:55.348Z,7.29
2023-01-20T09:30:58.495Z,7.28
2023-01-20T09:31:59.016Z,7.65
2023-01-20T09:32:58.038Z,7.81
2023-01-20T09:33:54.715Z,7.36
2023-01-20T09:34:51.322Z,7.49
2023-01-20T09:35:54.780Z,7.75
2023-01-20T09:36:53.835Z,7.25
2023-01-20T09:38:09.220Z,7.43
2023-01-20T09:39:24.268Z,7.37
2023-01-20T09:40:48.349Z,7.46
2023-01-20T09:42:07.149Z,7.18
2023-01-20T09:43:53.290Z,7.37
2023-01-20T09:44:57.219Z,7.47
2023-01-20T09:46:17.581Z,7.44
2023-01-20T09:47:31.738Z,7.16
2023-01-20T09:49:08.462Z,7.24
2023-01-20T09:50:29.769Z,7.34
2023-01-20T09:52:31.663Z,7.62
2023-01-20T09:53:40.029Z,7.72
2023-01-20T09:54:47.758Z,7.83
2023-01-20T09:55:51.478Z,7.62
2023-01-20T09:56:51.456Z,7.71
2023-01-20T09:57:59.243Z,7.87
2023-01-20T09:58:58.493Z,7.88
2023-01-20T10:00:26.222Z,7.12
2023-01-20T10:01:42.932Z,7.64
2023-01-20T10:02:44.736Z,7.46
2023-01-20T10:04:00.219Z,7.59
2023-01-20T10:05:07.871Z,7.55
2023-01-20T10:06:11.576Z,7.19
2023-01-20T10:07:31.665Z,7.45
2023-01-20T10:09:04.481Z,7.84
2023-01-20T10:10:21.095Z,7.89
2023-01-20T10:11:20.585Z,7.77
2023-01-20T10:12:28.263Z,7.97
2023-01-20T10:13:51.961Z,7.82
2023-01-20T10:14:48.428Z,8.20
2023-01-20T10:15:50.699Z,8.14
2023-01-20T10:16:51.060Z,8.32
2023-01-20T10:17:52.959Z,8.21
2023-01-20T10:19:01.146Z,8.34
2023-01-20T10:20:21.618Z,8.61
2023-01-20T10:21:27.893Z,8.49
2023-01-20T10:22:29.308Z,8.37
2023-01-20T10:23:43.293Z,8.57
2023-01-20T10:24:52.950Z,8.57
2023-01-20T10:25:55.937Z,8.65
2023-01-20T10:27:00.574Z,9.35
2023-01-20T10:28:12.139Z,9.28
2023-01-20T10:29:18.587Z,9.59
2023-01-20T10:30:16.551Z,9.96
2023-01-20T10:31:17.825Z,9.89
2023-01-20T10:32:21.656Z,9.92
2023-01-20T10:33:24.069Z,9.67
2023-01-20T10:34:22.509Z,9.52
2023-01-20T10:35:33.459Z,9.69
2023-01-20T10:36:31.486Z,9.63
2023-01-20T10:37:31.213Z,9.22
2023-01-20T10:38:40.983Z,9.45
2023-01-20T10:39:43.881Z,9.68
2023-01-20T10:40:45.103Z,9.31
2023-01-20T10:41:49.185Z,9.07
2023-01-20T10:42:54.545Z,8.13
2023-01-20T10:43:51.136Z,8.90
2023-01-20T10:44:52.184Z,8.98
2023-01-20T10:46:16.563Z,9.09
2023-01-20T10:47:13.739Z,8.90
2023-01-20T10:48:10.317Z,8.91
2023-01-20T10:49:28.153Z,8.92
2023-01-20T10:50:47.804Z,8.85
2023-01-20T10:52:00.024Z,9.06
2023-01-20T10:53:02.231Z,8.59
2023-01-20T10:54:05.352Z,7.99
2023-01-20T10:55:10.992Z,8.23
2023-01-20T10:56:10.522Z,8.42
2023-01-20T10:57:12.715Z,8.22
2023-01-20T10:58:15.329Z,7.99
2023-01-20T10:59:13.655Z,8.14
2023-01-20T11:00:26.872Z,8.33
2023-01-20T11:01:25.221Z,8.59
2023-01-20T11:02:26.334Z,8.67
2023-01-20T11:03:24.136Z,8.24
2023-01-20T11:04:21.886Z,8.25
2023-01-20T11:05:22.664Z,8.36
2023-01-20T11:06:22.312Z,8.32
2023-01-20T11:07:19.799Z,8.15
2023-01-20T11:08:22.628Z,8.09
2023-01-20T11:09:37.877Z,8.09
2023-01-20T11:10:34.525Z,8.27
2023-01-20T11:11:31.798Z,8.29
2023-01-20T11:12:34.801Z,8.28
2023-01-20T11:13:31.427Z,8.34
2023-01-20T11:14:29.115Z,8.13
2023-01-20T11:15:30.676Z,8.21
2023-01-20T11:16:29.134Z,8.20
2023-01-20T11:17:25.786Z,8.22
2023-01-20T11:18:27.864Z,8.21
2023-01-20T11:19:24.477Z,8.25
2023-01-20T11:20:23.304Z,8.01
2023-01-20T11:21:24.482Z,8.25
2023-01-20T11:22:34.308Z,8.04
2023-01-20T11:23:37.747Z,8.05
2023-01-20T11:24:45.155Z,8.14
2023-01-20T11:25:41.745Z,7.93
2023-01-20T11:26:38.441Z,7.97
2023-01-20T11:27:41.451Z,7.72
2023-01-20T11:28:49.801Z,7.82
2023-01-20T11:30:08.959Z,7.76
2023-01-20T11:31:06.018Z,7.27
2023-01-20T11:32:03.335Z,7.67
2023-01-20T11:33:18.438Z,7.52
2023-01-20T11:34:33.389Z,7.58
2023-01-20T11:35:29.966Z,7.48
2023-01-20T11:36:27.654Z,7.66
2023-01-20T11:37:42.452Z,7.40
2023-01-20T11:38:46.865Z,7.41
2023-01-20T11:39:49.628Z,7.38
2023-01-20T11:40:53.579Z,7.07
2023-01-20T11:42:27.594Z,7.39
2023-01-20T11:43:34.391Z,7.31
2023-01-20T11:44:30.988Z,7.33
2023-01-20T11:45:36.524Z,7.38
2023-01-20T11:46:37.428Z,7.20
2023-01-20T11:47:36.488Z,7.04
2023-01-20T11:48:33.214Z,6.94
2023-01-20T11:49:29.954Z,7.10
2023-01-20T11:50:32.310Z,6.63
2023-01-20T11:51:28.871Z,6.56
2023-01-20T11:52:25.646Z,6.71
2023-01-20T11:53:28.295Z,6.74
2023-01-20T11:54:27.832Z,6.41
2023-01-20T11:55:24.839Z,6.24
2023-01-20T11:56:26.422Z,5.94
2023-01-20T11:57:23.053Z,5.87
2023-01-20T11:58:25.596Z,5.94
2023-01-20T11:59:28.739Z,5.99
2023-01-20T12:00:31.236Z,5.82
2023-01-20T12:01:29.456Z,5.74
2023-01-20T12:02:28.268Z,5.79
2023-01-20T12:03:27.519Z,5.78
2023-01-20T12:04:42.851Z,5.30
2023-01-20T12:05:44.401Z,5.17
2023-01-20T12:06:55.961Z,5.50
2023-01-20T12:07:53.453Z,5.07
2023-01-20T12:09:05.624Z,5.55
2023-01-20T12:10:12.058Z,5.50
2023-01-20T12:11:10.291Z,5.54
2023-01-20T12:12:13.392Z,5.36
2023-01-20T12:13:24.892Z,5.24
2023-01-20T12:14:45.117Z,5.28
2023-01-20T12:15:45.499Z,5.30
2023-01-20T12:16:44.693Z,5.12
2023-01-20T12:17:46.566Z,4.99
2023-01-20T12:19:01.826Z,4.97
2023-01-20T12:20:05.021Z,5.35
2023-01-20T12:21:10.486Z,4.92
2023-01-20T12:22:14.265Z,4.92
2023-01-20T12:23:10.782Z,4.88
2023-01-20T12:24:21.077Z,4.71
2023-01-20T12:25:25.743Z,4.59
2023-01-20T12:26:24.872Z,4.57
2023-01-20T12:27:25.721Z,4.48
2023-01-20T12:28:31.285Z,4.40
2023-01-20T12:29:44.779Z,4.22
2023-01-20T12:31:03.042Z,4.33
2023-01-20T12:32:01.011Z,4.73
2023-01-20T12:32:58.362Z,4.05
2023-01-20T12:34:05.342Z,4.26
2023-01-20T12:35:02.005Z,4.27
2023-01-20T12:36:16.859Z,3.85
2023-01-20T12:37:36.553Z,3.91
2023-01-20T12:39:12.092Z,3.68
2023-01-20T12:40:30.808Z,3.55
2023-01-20T12:41:49.787Z,3.71
2023-01-20T12:43:13.820Z,3.51
2023-01-20T12:44:44.259Z,3.48
2023-01-20T12:46:00.705Z,3.41
2023-01-20T12:47:22.062Z,3.41
2023-01-20T12:48:37.028Z,3.18
2023-01-20T12:49:43.968Z,3.60
2023-01-20T12:51:05.785Z,3.62
2023-01-20T12:52:39.508Z,3.37
2023-01-20T12:53:41.940Z,3.43
2023-01-20T12:54:48.709Z,3.33
2023-01-20T12:56:16.719Z,3.54
2023-01-20T12:57:34.336Z,3.23
2023-01-20T12:58:59.863Z,3.33
2023-01-20T13:00:47.556Z,3.05
2023-01-20T13:01:51.735Z,3.04
2023-01-20T13:03:19.841Z,3.16
2023-01-20T13:04:22.516Z,3.13
2023-01-20T13:05:25.219Z,2.84
2023-01-20T13:06:43.755Z,2.37
2023-01-20T13:07:56.093Z,2.22
2023-01-20T13:09:46.473Z,2.41
2023-01-20T13:11:10.520Z,2.31
2023-01-20T13:12:46.660Z,2.46
2023-01-20T13:13:57.534Z,2.30
2023-01-20T13:15:19.864Z,2.23
2023-01-20T13:16:31.769Z,2.45
2023-01-20T13:17:39.353Z,2.39
2023-01-20T13:18:42.534Z,2.46
2023-01-20T13:19:41.562Z,2.40
2023-01-20T13:20:45.553Z,2.15
2023-01-20T13:21:42.704Z,2.82
2023-01-20T13:22:39.374Z,2.89
2023-01-20T13:23:37.845Z,2.83
2023-01-20T13:24:35.099Z,2.98
2023-01-20T13:25:33.963Z,3.05
2023-01-20T13:26:31.691Z,3.32
2023-01-20T13:27:34.473Z,3.36
2023-01-20T13:28:31.548Z,3.68
2023-01-20T13:29:37.157Z,3.66
2023-01-20T13:30:50.852Z,3.44
2023-01-20T13:31:52.277Z,3.20
2023-01-20T13:32:49.281Z,3.10
2023-01-20T13:33:46.007Z,3.29
2023-01-20T13:34:42.770Z,3.40
2023-01-20T13:35:48.493Z,3.47
2023-01-20T13:37:07.283Z,3.34
2023-01-20T13:38:04.048Z,3.48